Time;durP1;ratioP1;P1;durP2;ratioP2;P2;SDS_P1;SDS_P2;PMS_P1;PMS_P2;Temp;Humidity;BMP_temperature;BMP_pressure;BME280_temperature;BME280_humidity;BME280_pressure;Samples;Min_cycle;Max_cycle;Signal;HPM_P1;HPM_P2
2021/04/08 00:01:24;;;;;;;12.18;3.75;;;1.30;87.60;;;;;;5114523;28;20023;-36
2021/04/08 00:03:50;;;;;;;10.82;5.05;;;1.30;88.00;;;;;;5114594;28;20379;-36
2021/04/08 00:06:16;;;;;;;14.18;4.90;;;1.30;88.00;;;;;;5114450;28;20016;-37
2021/04/08 00:08:42;;;;;;;19.90;4.10;;;1.20;88.30;;;;;;5113519;28;20028;-38
2021/04/08 00:11:08;;;;;;;15.35;4.75;;;1.10;88.30;;;;;;5113612;28;20476;-37
2021/04/08 00:13:34;;;;;;;18.20;4.85;;;1.10;88.30;;;;;;5114545;28;20034;-37
2021/04/08 00:16:02;;;;;;;14.95;4.72;;;1.20;88.40;;;;;;5114532;28;20073;-36
2021/04/08 00:18:27;;;;;;;19.30;6.07;;;1.10;88.40;;;;;;5114231;28;20074;-36
2021/04/08 00:20:53;;;;;;;12.63;3.80;;;1.10;88.70;;;;;;5114200;28;20015;-36
2021/04/08 00:23:18;;;;;;;10.75;3.95;;;1.10;88.70;;;;;;5114295;28;20487;-36
2021/04/08 00:25:44;;;;;;;16.50;5.70;;;1.10;88.70;;;;;;5114296;28;20107;-36
2021/04/08 00:28:10;;;;;;;14.45;4.63;;;1.00;88.70;;;;;;5114553;28;20051;-36
2021/04/08 00:30:43;;;;;;;14.68;4.97;;;1.00;88.90;;;;;;5114228;28;20450;-36
2021/04/08 00:33:16;;;;;;;14.52;5.18;;;1.00;88.90;;;;;;5113281;28;20467;-35
2021/04/08 00:35:42;;;;;;;19.27;5.65;;;1.10;88.70;;;;;;5114407;28;20027;-35
2021/04/08 00:38:09;;;;;;;12.73;4.78;;;1.10;88.60;;;;;;5112651;28;20028;-35
2021/04/08 00:40:35;;;;;;;16.85;6.28;;;1.00;88.70;;;;;;5114281;28;20023;-35
2021/04/08 00:43:01;;;;;;;14.35;5.90;;;1.10;88.80;;;;;;5114071;28;20072;-35
2021/04/08 00:45:27;;;;;;;12.52;4.20;;;1.10;88.60;;;;;;5114017;28;20030;-35
2021/04/08 00:47:53;;;;;;;8.35;5.10;;;1.10;88.80;;;;;;5114118;28;20016;-36
2021/04/08 00:50:20;;;;;;;13.65;4.18;;;1.00;88.80;;;;;;5113765;28;20168;-36
2021/04/08 00:52:54;;;;;;;10.40;4.57;;;1.10;88.50;;;;;;5112511;28;20112;-36
2021/04/08 00:55:22;;;;;;;7.43;3.38;;;1.00;88.60;;;;;;5114176;28;20069;-37
2021/04/08 00:57:47;;;;;;;17.10;4.47;;;1.00;88.60;;;;;;5113730;28;20099;-36
2021/04/08 01:00:14;;;;;;;9.20;3.70;;;1.00;88.60;;;;;;5113553;28;20428;-35
2021/04/08 01:02:40;;;;;;;12.07;4.05;;;1.00;88.60;;;;;;5114223;28;20024;-35
2021/04/08 01:05:06;;;;;;;13.27;3.85;;;0.90;88.70;;;;;;5114048;28;20475;-35
2021/04/08 01:07:33;;;;;;;16.15;4.43;;;0.90;88.80;;;;;;5116414;28;20036;-35
2021/04/08 01:10:00;;;;;;;11.63;4.07;;;1.00;88.80;;;;;;5116499;28;20032;-35
2021/04/08 01:12:26;;;;;;;11.93;4.38;;;0.90;89.00;;;;;;5116340;28;20031;-35
2021/04/08 01:14:52;;;;;;;12.25;5.18;;;0.90;89.10;;;;;;5117870;28;20498;-36
2021/04/08 01:17:33;;;;;;;16.73;4.03;;;0.90;89.00;;;;;;5117738;28;20046;-35
2021/04/08 01:20:32;;;;;;;15.38;4.88;;;0.90;89.00;;;;;;5117751;28;20028;-36
2021/04/08 01:23:09;;;;;;;11.45;4.43;;;0.80;89.00;;;;;;5117536;28;20113;-35
2021/04/08 01:25:37;;;;;;;12.95;4.85;;;0.90;89.00;;;;;;5117751;28;20024;-35
2021/04/08 01:28:21;;;;;;;10.85;4.97;;;0.90;89.10;;;;;;5117478;28;20019;-37
2021/04/08 01:30:49;;;;;;;11.57;4.78;;;0.80;89.20;;;;;;5117448;28;20020;-35
2021/04/08 01:33:41;;;;;;;18.17;6.28;;;0.90;89.30;;;;;;5117721;28;20378;-35
2021/04/08 01:36:16;;;;;;;12.15;5.20;;;0.90;89.30;;;;;;5115845;28;20072;-36
2021/04/08 01:38:49;;;;;;;15.13;5.80;;;0.90;89.10;;;;;;5117614;28;20110;-35
2021/04/08 01:41:19;;;;;;;20.40;5.70;;;1.00;88.90;;;;;;5117456;28;20027;-36
2021/04/08 01:43:46;;;;;;;12.35;4.93;;;0.90;89.00;;;;;;5116793;28;20474;-35
2021/04/08 01:46:17;;;;;;;16.95;5.50;;;0.90;89.10;;;;;;5115903;28;20483;-35
2021/04/08 01:48:45;;;;;;;12.95;4.90;;;0.90;89.10;;;;;;5117377;28;20061;-36
2021/04/08 01:51:13;;;;;;;17.83;5.78;;;0.80;89.10;;;;;;5117456;28;20038;-35
2021/04/08 01:53:50;;;;;;;13.85;5.53;;;0.80;88.80;;;;;;5118273;28;20024;-36
2021/04/08 01:56:21;;;;;;;13.07;5.40;;;0.90;89.00;;;;;;5117042;28;20028;-36
2021/04/08 01:58:49;;;;;;;11.82;4.88;;;0.80;89.00;;;;;;5117246;28;20367;-36
2021/04/08 02:01:19;;;;;;;25.02;6.18;;;0.80;88.90;;;;;;5117536;28;20027;-36
2021/04/08 02:03:45;;;;;;;16.83;6.28;;;0.90;88.90;;;;;;5117058;28;20026;-38
2021/04/08 02:06:12;;;;;;;11.82;5.80;;;0.80;89.20;;;;;;5117197;28;20068;-35
2021/04/08 02:08:45;;;;;;;20.80;7.22;;;0.80;89.30;;;;;;5117144;28;20076;-35
2021/04/08 02:11:12;;;;;;;19.02;6.22;;;0.80;89.20;;;;;;5116808;28;20032;-36
2021/04/08 02:13:41;;;;;;;14.75;6.30;;;0.80;89.30;;;;;;5117098;27;20031;-36
2021/04/08 02:16:08;;;;;;;14.27;5.95;;;0.70;89.60;;;;;;5116653;28;20023;-36
2021/04/08 02:18:36;;;;;;;17.80;7.40;;;0.70;89.70;;;;;;5115793;28;20024;-35
2021/04/08 02:21:03;;;;;;;11.32;5.85;;;0.80;89.60;;;;;;5115502;28;20060;-36
2021/04/08 02:23:31;;;;;;;16.80;6.32;;;0.70;89.80;;;;;;5116663;28;20019;-36
2021/04/08 02:25:57;;;;;;;12.52;6.43;;;0.70;89.70;;;;;;5116714;28;20023;-37
2021/04/08 02:28:26;;;;;;;14.10;7.13;;;0.60;90.00;;;;;;5116517;28;20356;-35
2021/04/08 02:30:53;;;;;;;15.38;6.38;;;0.70;89.80;;;;;;5116887;28;20036;-36
2021/04/08 02:33:27;;;;;;;18.77;7.00;;;0.60;89.90;;;;;;5116422;28;20030;-36
2021/04/08 02:35:53;;;;;;;18.52;7.13;;;0.60;90.00;;;;;;5115131;28;20130;-37
2021/04/08 02:38:24;;;;;;;18.52;7.35;;;0.60;90.00;;;;;;5116394;28;20020;-36
2021/04/08 02:40:50;;;;;;;20.90;8.85;;;0.60;90.20;;;;;;5116320;28;20095;-36
2021/04/08 02:43:17;;;;;;;18.25;6.55;;;0.70;89.80;;;;;;5116177;28;20019;-36
2021/04/08 02:45:43;;;;;;;23.33;8.00;;;0.60;90.00;;;;;;5116108;27;20136;-36
2021/04/08 02:48:10;;;;;;;19.92;7.25;;;0.60;90.00;;;;;;5116443;28;20031;-36
2021/04/08 02:50:40;;;;;;;17.63;7.47;;;0.60;89.90;;;;;;5115824;28;20050;-36
2021/04/08 02:53:27;;;;;;;13.07;7.30;;;0.70;90.00;;;;;;5116030;28;20023;-36
2021/04/08 02:56:09;;;;;;;14.15;7.25;;;0.60;90.20;;;;;;5116217;28;20027;-36
2021/04/08 02:58:36;;;;;;;15.10;6.43;;;0.60;90.30;;;;;;5116088;28;20066;-36
2021/04/08 03:01:18;;;;;;;18.23;7.55;;;0.60;90.30;;;;;;5115866;28;20019;-35
2021/04/08 03:03:51;;;;;;;21.55;7.30;;;0.60;90.10;;;;;;5115733;28;20023;-35
2021/04/08 03:06:18;;;;;;;14.63;7.43;;;0.60;90.10;;;;;;5116009;28;20102;-35
2021/04/08 03:08:48;;;;;;;21.15;7.45;;;0.60;90.10;;;;;;5115682;28;20034;-35
2021/04/08 03:11:16;;;;;;;27.15;8.73;;;0.50;90.10;;;;;;5115952;28;20074;-35
2021/04/08 03:13:44;;;;;;;21.50;7.75;;;0.50;90.10;;;;;;5115642;28;20546;-35
2021/04/08 03:16:16;;;;;;;18.63;6.57;;;0.60;90.30;;;;;;5115790;28;20074;-36
2021/04/08 03:18:42;;;;;;;14.52;7.30;;;0.50;90.30;;;;;;5115794;28;20207;-35
2021/04/08 03:21:09;;;;;;;13.48;6.63;;;0.40;90.50;;;;;;5115279;28;20023;-35
2021/04/08 03:23:35;;;;;;;22.73;7.78;;;0.40;90.70;;;;;;5114845;28;20065;-35
2021/04/08 03:26:01;;;;;;;23.40;9.18;;;0.40;90.80;;;;;;5115263;28;20095;-35
2021/04/08 03:28:28;;;;;;;17.10;8.05;;;0.40;90.90;;;;;;5114936;28;20108;-35
2021/04/08 03:30:55;;;;;;;21.23;7.15;;;0.40;91.00;;;;;;5115487;28;20169;-35
2021/04/08 03:33:22;;;;;;;19.23;6.38;;;0.40;90.80;;;;;;5115439;28;20026;-35
2021/04/08 03:35:49;;;;;;;20.33;6.78;;;0.40;91.00;;;;;;5115387;27;20055;-36
2021/04/08 03:38:19;;;;;;;16.33;7.95;;;0.30;91.10;;;;;;5114920;28;20115;-36
2021/04/08 03:40:46;;;;;;;17.10;7.13;;;0.30;91.10;;;;;;5115047;28;20052;-36
2021/04/08 03:43:14;;;;;;;14.30;6.55;;;0.30;91.10;;;;;;5114916;27;20023;-36
2021/04/08 03:45:41;;;;;;;15.57;7.32;;;0.30;91.10;;;;;;5115007;28;20488;-36
2021/04/08 03:48:12;;;;;;;18.58;7.63;;;0.30;91.30;;;;;;5115122;28;20024;-36
2021/04/08 03:50:38;;;;;;;17.83;7.60;;;0.30;91.30;;;;;;5113491;28;20120;-36
2021/04/08 03:53:05;;;;;;;24.38;8.00;;;0.30;91.30;;;;;;5114753;28;20020;-36
2021/04/08 03:55:32;;;;;;;13.52;6.93;;;0.30;91.40;;;;;;5114785;28;20028;-36
2021/04/08 03:57:58;;;;;;;14.65;6.75;;;0.30;91.30;;;;;;5114604;28;20375;-36
2021/04/08 04:00:25;;;;;;;18.02;8.60;;;0.30;91.50;;;;;;5114897;28;20043;-36
2021/04/08 04:02:52;;;;;;;19.50;7.82;;;0.30;91.00;;;;;;5114684;28;20044;-36
2021/04/08 04:05:17;;;;;;;30.38;9.38;;;0.30;90.80;;;;;;5114575;28;20016;-36
2021/04/08 04:07:52;;;;;;;17.33;8.90;;;0.30;90.80;;;;;;5114499;28;20107;-36
2021/04/08 04:10:22;;;;;;;16.35;8.93;;;0.30;90.90;;;;;;5114903;28;20535;-36
2021/04/08 04:12:53;;;;;;;23.95;10.05;;;0.30;90.80;;;;;;5114865;27;20547;-35
2021/04/08 04:15:20;;;;;;;22.80;10.13;;;0.30;90.60;;;;;;5114737;28;20016;-36
2021/04/08 04:17:46;;;;;;;29.23;10.20;;;0.30;90.90;;;;;;5114706;28;20055;-36
2021/04/08 04:20:12;;;;;;;23.90;8.18;;;0.30;91.00;;;;;;5114286;28;20530;-36
2021/04/08 04:22:39;;;;;;;25.20;8.52;;;0.30;91.00;;;;;;5114486;28;20020;-35
2021/04/08 04:25:07;;;;;;;17.45;8.40;;;0.30;90.90;;;;;;5114338;28;20030;-36
2021/04/08 04:27:33;;;;;;;25.92;8.75;;;0.30;91.00;;;;;;5114052;28;20368;-36
2021/04/08 04:29:59;;;;;;;16.33;7.18;;;0.30;91.00;;;;;;5114161;28;20024;-36
2021/04/08 04:32:25;;;;;;;14.20;6.68;;;0.30;91.00;;;;;;5114185;28;20103;-36
2021/04/08 04:34:50;;;;;;;26.60;7.15;;;0.30;91.00;;;;;;5114109;28;20447;-36
2021/04/08 04:37:16;;;;;;;20.13;8.00;;;0.30;90.90;;;;;;5113963;28;20024;-35
2021/04/08 04:39:44;;;;;;;17.10;7.50;;;0.30;90.80;;;;;;5114055;28;20063;-35
2021/04/08 04:42:10;;;;;;;14.02;6.93;;;0.30;90.70;;;;;;5114632;28;20429;-35
2021/04/08 04:44:37;;;;;;;18.50;7.47;;;0.40;90.40;;;;;;5112577;28;20024;-35
2021/04/08 04:47:03;;;;;;;19.13;7.57;;;0.50;90.20;;;;;;5114257;28;20034;-35
2021/04/08 04:49:28;;;;;;;16.40;7.22;;;0.60;89.90;;;;;;5113758;28;20135;-35
2021/04/08 04:51:54;;;;;;;24.40;6.90;;;0.70;89.70;;;;;;5113722;28;20061;-35
2021/04/08 04:54:20;;;;;;;17.75;8.13;;;0.80;89.40;;;;;;5113962;28;20023;-35
2021/04/08 04:56:46;;;;;;;17.15;6.65;;;0.80;89.30;;;;;;5113916;28;20421;-35
2021/04/08 04:59:11;;;;;;;16.67;9.07;;;0.80;89.00;;;;;;5113914;28;20034;-36
2021/04/08 05:01:37;;;;;;;21.23;7.32;;;0.80;89.10;;;;;;5113840;28;20024;-36
2021/04/08 05:04:03;;;;;;;13.93;7.13;;;0.80;89.00;;;;;;5113619;28;20102;-37
2021/04/08 05:06:29;;;;;;;18.33;7.90;;;0.90;88.60;;;;;;5113814;28;20020;-36
2021/04/08 05:08:55;;;;;;;23.05;7.72;;;0.90;88.70;;;;;;5113689;28;20027;-35
2021/04/08 05:11:20;;;;;;;20.05;7.47;;;1.00;88.60;;;;;;5113549;28;20032;-36
2021/04/08 05:13:46;;;;;;;14.95;6.72;;;1.10;88.20;;;;;;5113574;28;20387;-37
2021/04/08 05:16:12;;;;;;;14.60;5.32;;;1.00;88.20;;;;;;5113800;28;20036;-35
2021/04/08 05:18:37;;;;;;;16.75;5.45;;;1.10;88.20;;;;;;5113455;28;20027;-35
2021/04/08 05:21:03;;;;;;;14.75;5.45;;;1.10;88.00;;;;;;5113502;28;20464;-35
2021/04/08 05:23:29;;;;;;;13.07;5.30;;;1.30;88.00;;;;;;5113430;28;20032;-35
2021/04/08 05:25:55;;;;;;;13.90;6.00;;;1.30;87.60;;;;;;5113260;28;20018;-36
2021/04/08 05:28:20;;;;;;;21.52;6.63;;;1.30;87.60;;;;;;5113312;28;20046;-35
2021/04/08 05:30:46;;;;;;;14.13;5.90;;;1.40;87.60;;;;;;5113618;28;20020;-37
2021/04/08 05:33:12;;;;;;;15.13;5.47;;;1.30;87.40;;;;;;5113701;28;20027;-36
2021/04/08 05:35:38;;;;;;;17.10;5.65;;;1.30;87.50;;;;;;5114124;28;20020;-36
2021/04/08 05:38:04;;;;;;;25.98;6.22;;;1.30;87.60;;;;;;5113579;28;20395;-36
2021/04/08 05:40:29;;;;;;;16.60;4.20;;;1.30;87.60;;;;;;5112020;28;20106;-36
2021/04/08 05:42:55;;;;;;;15.52;5.05;;;1.40;87.30;;;;;;5113497;28;20368;-36
2021/04/08 05:45:23;;;;;;;15.95;5.53;;;1.50;87.20;;;;;;5113449;28;20382;-36
2021/04/08 05:47:49;;;;;;;12.57;4.03;;;1.60;86.90;;;;;;5095644;28;20391;-36
2021/04/08 05:50:15;;;;;;;19.10;5.85;;;1.60;86.60;;;;;;5113227;28;20051;-36
2021/04/08 05:52:41;;;;;;;12.32;4.10;;;1.70;86.70;;;;;;5116526;28;20036;-36
2021/04/08 05:55:07;;;;;;;9.32;3.88;;;1.60;86.70;;;;;;5115764;28;20494;-36
2021/04/08 05:57:33;;;;;;;12.10;4.57;;;1.60;86.90;;;;;;5117115;28;20379;-36
2021/04/08 05:59:59;;;;;;;11.18;4.40;;;1.60;86.70;;;;;;5117544;28;20031;-36
2021/04/08 06:02:25;;;;;;;13.93;4.88;;;1.80;86.40;;;;;;5116773;28;20065;-36
2021/04/08 06:04:50;;;;;;;7.38;3.67;;;1.80;86.60;;;;;;5117084;28;20379;-37
2021/04/08 06:07:16;;;;;;;17.77;3.95;;;2.00;85.80;;;;;;5117050;28;20110;-36
2021/04/08 06:09:42;;;;;;;8.65;4.28;;;2.20;85.80;;;;;;5116471;28;20100;-36
2021/04/08 06:12:08;;;;;;;14.13;5.22;;;2.20;85.60;;;;;;5116659;28;20023;-36
2021/04/08 06:14:36;;;;;;;11.50;4.47;;;2.00;85.60;;;;;;5116663;28;20035;-36
2021/04/08 06:17:02;;;;;;;15.07;4.38;;;2.20;85.90;;;;;;5116670;28;20032;-35
2021/04/08 06:19:27;;;;;;;11.63;3.58;;;2.30;85.00;;;;;;5116629;28;20472;-36
2021/04/08 06:21:53;;;;;;;10.02;4.35;;;2.30;85.70;;;;;;5116324;28;20027;-36
2021/04/08 06:24:19;;;;;;;14.90;4.65;;;2.30;84.70;;;;;;5116691;28;20020;-37
2021/04/08 06:26:45;;;;;;;14.05;3.85;;;2.30;84.60;;;;;;5116682;28;20020;-37
2021/04/08 06:29:11;;;;;;;12.73;4.80;;;2.30;84.80;;;;;;5114965;28;20167;-36
2021/04/08 06:31:37;;;;;;;11.93;4.00;;;2.20;85.10;;;;;;5116287;28;20034;-36
2021/04/08 06:34:02;;;;;;;13.43;5.72;;;2.30;84.80;;;;;;5114916;28;20035;-36
2021/04/08 06:36:28;;;;;;;12.15;5.63;;;2.40;84.60;;;;;;5116597;28;20355;-46
2021/04/08 06:38:54;;;;;;;9.75;4.30;;;2.50;84.10;;;;;;5115916;28;20351;-37
2021/04/08 06:41:19;;;;;;;16.50;6.00;;;2.60;83.70;;;;;;5114795;28;20076;-36
2021/04/08 06:43:46;;;;;;;20.80;5.18;;;2.80;83.20;;;;;;5116285;28;20024;-37
2021/04/08 06:46:16;;;;;;;19.45;4.85;;;2.90;83.00;;;;;;5115839;28;20095;-35
2021/04/08 06:48:50;;;;;;;8.30;4.55;;;2.90;82.40;;;;;;5116428;28;20032;-35
2021/04/08 06:51:19;;;;;;;6.03;3.63;;;3.00;82.60;;;;;;5095825;28;20031;-35
2021/04/08 06:53:46;;;;;;;9.25;5.50;;;3.10;82.00;;;;;;5095417;28;20480;-35
2021/04/08 06:56:12;;;;;;;9.35;3.47;;;3.10;82.20;;;;;;5095066;28;20024;-35
2021/04/08 06:58:40;;;;;;;10.02;6.32;;;3.30;81.40;;;;;;5095123;28;20075;-37
2021/04/08 07:01:09;;;;;;;17.30;6.10;;;3.30;80.90;;;;;;5095405;28;20016;-36
2021/04/08 07:03:36;;;;;;;13.90;9.45;;;3.30;80.70;;;;;;5094550;28;20379;-35
2021/04/08 07:06:02;;;;;;;11.65;4.90;;;3.40;80.70;;;;;;5094898;28;20020;-36
2021/04/08 07:08:33;;;;;;;16.58;5.78;;;3.60;80.00;;;;;;5095007;28;20103;-36
2021/04/08 07:10:59;;;;;;;12.20;6.15;;;3.80;79.00;;;;;;5094906;28;20030;-37
2021/04/08 07:13:32;;;;;;;16.60;4.93;;;3.80;79.40;;;;;;5094859;28;20369;-37
2021/04/08 07:15:59;;;;;;;21.02;8.95;;;3.70;79.00;;;;;;5094650;28;20016;-36
2021/04/08 07:18:25;;;;;;;13.82;6.20;;;3.70;78.90;;;;;;5094600;28;20028;-37
2021/04/08 07:20:52;;;;;;;18.50;7.15;;;3.60;79.20;;;;;;5094972;28;20058;-37
2021/04/08 07:23:18;;;;;;;14.05;7.38;;;3.80;78.90;;;;;;5094451;28;20028;-38
2021/04/08 07:26:06;;;;;;;18.98;7.93;;;4.20;77.40;;;;;;5094418;28;20025;-37
2021/04/08 07:28:32;;;;;;;12.07;6.18;;;4.30;76.60;;;;;;5094718;28;20024;-36
2021/04/08 07:31:22;;;;;;;19.08;7.72;;;4.10;78.10;;;;;;5094642;28;20036;-36
2021/04/08 07:33:53;;;;;;;16.58;6.78;;;3.90;78.50;;;;;;5094936;28;20050;-36
2021/04/08 07:36:27;;;;;;;22.17;8.40;;;4.20;78.40;;;;;;5094911;28;20099;-36
2021/04/08 07:38:53;;;;;;;20.90;6.30;;;4.40;77.00;;;;;;5094974;28;20035;-36
2021/04/08 07:41:31;;;;;;;22.27;6.93;;;4.40;77.40;;;;;;5093464;28;20035;-36
2021/04/08 07:44:05;;;;;;;13.93;6.25;;;4.70;76.40;;;;;;5093577;28;20104;-36
2021/04/08 07:46:36;;;;;;;8.38;5.25;;;4.30;75.30;;;;;;5094087;28;20161;-36
2021/04/08 07:49:24;;;;;;;20.27;7.15;;;4.00;76.50;;;;;;5096269;28;20052;-35
2021/04/08 07:51:50;;;;;;;17.00;7.35;;;4.30;76.30;;;;;;5114454;28;20024;-36
2021/04/08 07:54:18;;;;;;;17.23;9.18;;;4.20;75.50;;;;;;5112587;28;20547;-37
2021/04/08 07:56:45;;;;;;;18.42;8.65;;;4.40;74.70;;;;;;5114427;28;20027;-36
2021/04/08 07:59:27;;;;;;;22.42;7.25;;;4.50;73.30;;;;;;5114459;28;20062;-37
2021/04/08 08:02:01;;;;;;;18.77;7.57;;;4.60;72.30;;;;;;5114396;28;20027;-36
2021/04/08 08:04:28;;;;;;;13.50;6.72;;;4.60;71.60;;;;;;5114523;28;20043;-36
2021/04/08 08:06:55;;;;;;;16.30;7.22;;;4.80;70.80;;;;;;5114212;28;20382;-36
2021/04/08 08:09:26;;;;;;;10.63;6.20;;;4.60;70.50;;;;;;5114321;28;20471;-37
2021/04/08 08:11:52;;;;;;;16.33;7.85;;;4.90;69.80;;;;;;5113922;28;20107;-36
2021/04/08 08:14:33;;;;;;;12.82;6.72;;;5.00;69.30;;;;;;5112596;28;20063;-36
2021/04/08 08:17:04;;;;;;;17.45;7.13;;;5.30;67.70;;;;;;5113494;28;20104;-36
2021/04/08 08:19:31;;;;;;;20.95;7.78;;;5.50;68.00;;;;;;5113884;28;20059;-37
2021/04/08 08:21:58;;;;;;;15.65;6.47;;;5.60;64.60;;;;;;5113751;28;20020;-36
2021/04/08 08:24:24;;;;;;;13.88;6.57;;;5.50;64.20;;;;;;5113950;28;20028;-35
2021/04/08 08:26:51;;;;;;;12.90;5.75;;;5.90;63.30;;;;;;5113498;28;20106;-37
2021/04/08 08:29:30;;;;;;;17.10;6.35;;;5.60;63.30;;;;;;5113839;28;20020;-35
2021/04/08 08:32:04;;;;;;;12.48;6.50;;;5.70;63.50;;;;;;5114145;28;20034;-36
2021/04/08 08:34:38;;;;;;;14.23;6.18;;;5.60;63.60;;;;;;5113577;28;20027;-35
2021/04/08 08:37:09;;;;;;;22.15;7.03;;;5.90;63.00;;;;;;5113668;28;20040;-35
2021/04/08 08:39:38;;;;;;;13.30;5.45;;;5.70;63.30;;;;;;5113049;28;20020;-36
2021/04/08 08:42:06;;;;;;;8.18;4.47;;;5.90;62.90;;;;;;5113492;28;20019;-36
2021/04/08 08:44:34;;;;;;;14.95;5.75;;;6.00;60.00;;;;;;5113844;28;20051;-37
2021/04/08 08:47:04;;;;;;;8.75;4.35;;;6.30;58.90;;;;;;5113723;28;20450;-37
2021/04/08 08:49:35;;;;;;;9.88;4.18;;;6.40;56.90;;;;;;5113328;28;20411;-37
2021/04/08 08:52:02;;;;;;;14.40;4.93;;;6.00;58.10;;;;;;5113552;28;20035;-36
2021/04/08 08:54:31;;;;;;;9.18;4.40;;;6.00;58.50;;;;;;5112842;28;20074;-37
2021/04/08 08:56:58;;;;;;;9.27;4.70;;;6.40;57.10;;;;;;5112774;28;20023;-36
2021/04/08 08:59:24;;;;;;;18.10;5.80;;;6.90;55.70;;;;;;5113008;28;20381;-37
2021/04/08 09:01:51;;;;;;;13.02;4.40;;;6.90;56.20;;;;;;5112606;28;20317;-36
2021/04/08 09:04:17;;;;;;;13.13;4.28;;;7.10;56.10;;;;;;5113962;28;20020;-37
2021/04/08 09:06:44;;;;;;;11.25;3.75;;;6.80;55.40;;;;;;5112927;28;20027;-37
2021/04/08 09:09:13;;;;;;;9.15;3.88;;;6.50;55.00;;;;;;5111673;28;20028;-36
2021/04/08 09:11:40;;;;;;;7.32;2.53;;;6.40;54.50;;;;;;5113785;28;20468;-36
2021/04/08 09:14:06;;;;;;;7.32;2.30;;;6.80;51.00;;;;;;5113094;28;20023;-37
2021/04/08 09:16:45;;;;;;;7.90;2.70;;;6.80;50.10;;;;;;5113060;28;20036;-40
2021/04/08 09:19:13;;;;;;;9.55;2.15;;;6.70;50.30;;;;;;5112938;28;20024;-36
2021/04/08 09:21:53;;;;;;;5.30;2.15;;;6.70;50.50;;;;;;5113036;28;20095;-36
2021/04/08 09:24:21;;;;;;;6.38;2.58;;;6.60;50.80;;;;;;5113572;28;20039;-37
2021/04/08 09:26:51;;;;;;;6.93;2.42;;;6.20;50.90;;;;;;5113773;28;20543;-36
2021/04/08 09:29:38;;;;;;;6.47;2.63;;;6.40;50.40;;;;;;5117698;28;20027;-37
2021/04/08 09:32:28;;;;;;;3.17;2.25;;;6.40;48.40;;;;;;5116142;28;20063;-37
2021/04/08 09:35:17;;;;;;;7.60;2.33;;;6.70;48.60;;;;;;5117372;28;20115;-37
2021/04/08 09:37:46;;;;;;;3.38;2.03;;;6.70;47.10;;;;;;5117101;28;20024;-36
2021/04/08 09:40:21;;;;;;;5.43;1.90;;;6.50;45.70;;;;;;5116449;28;20043;-37
2021/04/08 09:42:56;;;;;;;7.10;2.22;;;6.70;44.90;;;;;;5116796;28;20024;-37
2021/04/08 09:45:25;;;;;;;4.65;2.03;;;6.30;46.00;;;;;;5117251;28;20374;-36
2021/04/08 09:48:11;;;;;;;5.38;1.90;;;6.30;47.30;;;;;;5117078;28;20020;-36
2021/04/08 09:50:48;;;;;;;4.18;2.17;;;6.30;47.40;;;;;;5117006;28;20051;-35
2021/04/08 09:53:15;;;;;;;6.65;2.17;;;6.20;48.20;;;;;;5117957;28;20493;-36
2021/04/08 09:55:48;;;;;;;9.43;2.47;;;6.40;48.20;;;;;;5117034;28;20039;-36
2021/04/08 09:58:19;;;;;;;3.97;2.28;;;6.30;48.10;;;;;;5116804;28;20375;-37
2021/04/08 10:00:45;;;;;;;9.05;2.60;;;6.30;48.70;;;;;;5117224;27;20020;-36
2021/04/08 10:03:11;;;;;;;3.97;2.13;;;6.60;46.70;;;;;;5116123;28;20034;-36
2021/04/08 10:05:39;;;;;;;6.30;2.08;;;6.80;43.80;;;;;;5116143;28;20026;-36
2021/04/08 10:08:05;;;;;;;3.05;1.88;;;7.50;42.50;;;;;;5116917;28;20054;-37
2021/04/08 10:10:37;;;;;;;4.47;2.03;;;8.30;39.00;;;;;;5116145;28;20510;-36
2021/04/08 10:13:19;;;;;;;5.38;1.80;;;8.00;39.40;;;;;;5116183;28;20333;-36
2021/04/08 10:15:46;;;;;;;7.80;1.85;;;8.30;38.50;;;;;;5116450;28;20048;-36
2021/04/08 10:18:20;;;;;;;4.00;1.65;;;7.70;37.80;;;;;;5116202;28;20061;-37
2021/04/08 10:20:48;;;;;;;4.60;1.58;;;6.80;37.50;;;;;;5116421;28;20034;-35
2021/04/08 10:23:14;;;;;;;5.55;1.92;;;6.70;38.30;;;;;;5114619;28;20023;-36
2021/04/08 10:25:41;;;;;;;7.57;2.33;;;6.60;39.00;;;;;;5114907;28;20111;-36
2021/04/08 10:28:07;;;;;;;4.93;1.58;;;6.30;40.80;;;;;;5115889;28;20039;-35
2021/04/08 10:30:38;;;;;;;14.52;2.05;;;6.40;39.20;;;;;;5116349;28;20576;-36
2021/04/08 10:33:24;;;;;;;5.15;2.20;;;6.60;39.30;;;;;;5115733;28;20051;-36
2021/04/08 10:35:49;;;;;;;6.97;1.73;;;6.70;38.20;;;;;;5116081;28;20073;-36
2021/04/08 10:38:15;;;;;;;2.50;1.33;;;6.70;39.10;;;;;;5115209;28;20463;-38
2021/04/08 10:40:50;;;;;;;5.53;1.58;;;6.60;38.00;;;;;;5115410;28;20020;-37
2021/04/08 10:43:18;;;;;;;4.15;1.95;;;6.70;38.40;;;;;;5116457;28;20016;-36
2021/04/08 10:45:52;;;;;;;3.65;1.73;;;6.60;39.20;;;;;;5116148;28;20027;-35
2021/04/08 10:48:19;;;;;;;5.35;2.42;;;6.70;40.30;;;;;;5117143;28;20027;-41
2021/04/08 10:50:45;;;;;;;10.98;2.33;;;7.00;40.20;;;;;;5114369;28;20043;-36
2021/04/08 10:53:11;;;;;;;2.97;2.30;;;7.00;41.30;;;;;;5116739;28;20467;-36
2021/04/08 10:55:37;;;;;;;7.05;2.40;;;7.00;40.60;;;;;;5116044;27;20042;-36
2021/04/08 10:58:02;;;;;;;8.85;3.28;;;6.90;41.60;;;;;;5115435;28;20479;-35
2021/04/08 11:00:28;;;;;;;5.32;2.50;;;6.60;42.60;;;;;;5115557;28;20425;-36
2021/04/08 11:02:57;;;;;;;8.98;4.10;;;6.70;42.60;;;;;;5116285;28;20379;-35
2021/04/08 11:05:25;;;;;;;5.68;3.17;;;6.80;42.90;;;;;;5114905;28;20051;-36
2021/04/08 11:07:55;;;;;;;6.32;3.40;;;6.80;43.30;;;;;;5115596;28;20023;-35
2021/04/08 11:10:28;;;;;;;6.97;3.00;;;6.60;43.70;;;;;;5115476;28;20111;-37
2021/04/08 11:12:56;;;;;;;8.50;3.25;;;6.60;43.00;;;;;;5114018;28;20046;-36
2021/04/08 11:15:24;;;;;;;5.07;3.63;;;6.50;43.50;;;;;;5115377;28;20119;-36
2021/04/08 11:17:52;;;;;;;5.88;3.20;;;6.80;43.10;;;;;;5115449;28;20019;-37
2021/04/08 11:20:30;;;;;;;5.32;2.83;;;7.20;41.80;;;;;;5114984;28;20028;-37
2021/04/08 11:22:56;;;;;;;4.80;3.28;;;7.50;42.10;;;;;;5115309;28;20027;-36
2021/04/08 11:25:24;;;;;;;8.80;4.10;;;7.40;42.00;;;;;;5115318;28;20084;-37
2021/04/08 11:27:55;;;;;;;3.92;3.50;;;7.30;41.10;;;;;;5115176;28;20024;-38
2021/04/08 11:30:34;;;;;;;7.90;2.92;;;7.30;41.30;;;;;;5115232;28;20035;-37
2021/04/08 11:33:01;;;;;;;6.00;3.35;;;7.30;41.20;;;;;;5115193;28;20024;-36
2021/04/08 11:35:29;;;;;;;4.13;3.50;;;7.20;42.00;;;;;;5113526;28;20092;-36
2021/04/08 11:38:10;;;;;;;3.05;2.60;;;7.20;40.60;;;;;;5115761;28;20023;-36
2021/04/08 11:40:37;;;;;;;4.40;3.03;;;7.40;40.00;;;;;;5115048;28;20032;-37
2021/04/08 11:43:24;;;;;;;4.68;3.08;;;7.40;39.40;;;;;;5114473;27;20478;-36
2021/04/08 11:45:51;;;;;;;3.72;3.40;;;7.40;39.10;;;;;;5114857;28;20471;-36
2021/04/08 11:48:22;;;;;;;5.22;3.60;;;7.30;38.70;;;;;;5115336;28;20375;-36
2021/04/08 11:50:48;;;;;;;5.47;3.47;;;7.40;38.00;;;;;;5114103;28;20073;-36
2021/04/08 11:53:16;;;;;;;7.22;4.28;;;7.80;37.50;;;;;;5114193;28;20031;-37
2021/04/08 11:55:43;;;;;;;7.47;2.85;;;8.20;37.30;;;;;;5113233;28;20066;-36
2021/04/08 11:58:12;;;;;;;5.78;3.17;;;7.70;38.10;;;;;;5114147;28;20031;-36
2021/04/08 12:00:39;;;;;;;7.45;4.10;;;7.40;37.40;;;;;;5114245;28;20019;-36
2021/04/08 12:03:38;;;;;;;6.15;3.03;;;7.40;37.40;;;;;;5113195;28;20030;-36
2021/04/08 12:06:14;;;;;;;9.40;3.40;;;7.70;37.70;;;;;;5077818;28;20053;-35
2021/04/08 12:08:49;;;;;;;3.17;2.83;;;8.20;37.40;;;;;;5112819;28;20019;-35
2021/04/08 12:11:15;;;;;;;7.00;3.53;;;8.10;37.60;;;;;;5114364;28;20027;-36
2021/04/08 12:13:43;;;;;;;4.85;2.72;;;8.50;36.90;;;;;;5114156;28;20051;-36
2021/04/08 12:16:22;;;;;;;4.10;3.10;;;9.10;34.80;;;;;;5114293;28;20027;-37
2021/04/08 12:18:48;;;;;;;5.50;2.97;;;8.40;36.30;;;;;;5114366;27;20097;-36
2021/04/08 12:21:14;;;;;;;5.40;3.40;;;8.10;38.70;;;;;;5113894;28;20532;-38
2021/04/08 12:23:40;;;;;;;9.63;4.18;;;8.00;37.00;;;;;;5114320;28;20023;-37
2021/04/08 12:26:06;;;;;;;12.38;3.60;;;8.80;35.60;;;;;;5113770;28;20030;-35
2021/04/08 12:28:32;;;;;;;6.63;4.80;;;8.50;36.10;;;;;;5114109;28;20024;-37
2021/04/08 12:31:01;;;;;;;4.35;3.28;;;8.80;36.40;;;;;;5114338;28;20032;-37
2021/04/08 12:33:40;;;;;;;5.18;3.20;;;8.80;36.90;;;;;;5114345;28;20159;-37
2021/04/08 12:36:11;;;;;;;7.57;4.15;;;9.30;35.30;;;;;;5114580;28;20379;-39
2021/04/08 12:38:38;;;;;;;5.05;3.58;;;9.20;35.30;;;;;;5114021;28;20024;-37
2021/04/08 12:41:04;;;;;;;5.97;3.95;;;10.40;33.00;;;;;;5112140;28;20153;-38
2021/04/08 12:43:31;;;;;;;7.03;5.22;;;9.80;32.60;;;;;;5113611;27;20055;-36
2021/04/08 12:45:58;;;;;;;7.43;4.50;;;8.30;35.50;;;;;;5113723;28;20028;-39
2021/04/08 12:48:24;;;;;;;6.30;4.25;;;7.90;36.20;;;;;;5113787;28;20153;-37
2021/04/08 12:50:51;;;;;;;11.32;4.50;;;8.10;36.00;;;;;;5113683;28;20506;-36
2021/04/08 12:53:20;;;;;;;5.57;4.45;;;8.20;36.30;;;;;;5113924;28;20168;-36
2021/04/08 12:55:46;;;;;;;5.25;4.18;;;8.10;37.00;;;;;;5113983;28;20490;-36
2021/04/08 12:58:12;;;;;;;7.20;4.32;;;8.00;37.20;;;;;;5113899;28;20418;-37
2021/04/08 13:00:38;;;;;;;9.27;4.13;;;8.30;36.60;;;;;;5113576;28;20023;-38